createdAt,value
2023-01-23T00:01:39.321Z,13.13
2023-01-23T00:04:07.742Z,14.10
2023-01-23T00:06:37.323Z,13.57
2023-01-23T00:09:05.632Z,13.00
2023-01-23T00:11:34.373Z,13.90
2023-01-23T00:14:04.029Z,12.63
2023-01-23T00:16:33.885Z,12.27
2023-01-23T00:19:02.136Z,12.97
2023-01-23T00:21:31.081Z,12.33
2023-01-23T00:24:02.768Z,13.67
2023-01-23T00:26:33.897Z,13.30
2023-01-23T00:29:02.514Z,13.83
2023-01-23T00:31:33.810Z,13.83
2023-01-23T00:34:04.026Z,13.70
2023-01-23T00:36:34.792Z,14.47
2023-01-23T00:39:06.743Z,13.30
2023-01-23T00:41:35.513Z,13.80
2023-01-23T00:44:03.722Z,15.13
2023-01-23T00:46:31.974Z,14.40
2023-01-23T00:49:00.148Z,15.67
2023-01-23T00:51:28.659Z,14.83
2023-01-23T00:53:57.124Z,13.93
2023-01-23T00:56:26.726Z,13.90
2023-01-23T00:58:55.154Z,13.93
2023-01-23T01:01:23.903Z,13.87
2023-01-23T01:03:52.116Z,12.73
2023-01-23T01:06:20.394Z,13.63
2023-01-23T01:08:49.677Z,13.10
2023-01-23T01:11:17.975Z,12.57
2023-01-23T01:13:47.580Z,12.30
2023-01-23T01:16:15.876Z,12.50
2023-01-23T01:18:44.240Z,13.60
2023-01-23T01:21:14.592Z,12.70
2023-01-23T01:23:43.239Z,12.10
2023-01-23T01:26:12.224Z,13.27
2023-01-23T01:28:42.212Z,12.77
2023-01-23T01:31:14.155Z,12.60
2023-01-23T01:33:44.403Z,12.43
2023-01-23T01:36:13.435Z,13.10
2023-01-23T01:38:42.094Z,12.93
2023-01-23T01:41:12.237Z,13.03
2023-01-23T01:43:41.259Z,13.00
2023-01-23T01:46:19.678Z,13.70
2023-01-23T01:48:56.563Z,11.97
2023-01-23T01:51:29.964Z,12.50
2023-01-23T01:54:04.445Z,12.77
2023-01-23T01:56:38.509Z,12.70
2023-01-23T01:59:09.457Z,12.90
2023-01-23T02:01:40.132Z,13.27
2023-01-23T02:04:09.720Z,12.33
2023-01-23T02:06:38.000Z,13.00
2023-01-23T02:09:12.005Z,12.73
2023-01-23T02:11:40.251Z,13.03
2023-01-23T02:14:08.775Z,11.50
2023-01-23T02:16:43.977Z,12.87
2023-01-23T02:19:27.511Z,12.73
2023-01-23T02:22:05.366Z,13.20
2023-01-23T02:24:40.232Z,12.33
2023-01-23T02:27:09.779Z,13.17
2023-01-23T02:29:45.821Z,12.63
2023-01-23T02:32:14.071Z,12.93
2023-01-23T02:34:43.561Z,12.80
2023-01-23T02:37:11.801Z,13.17
2023-01-23T02:39:40.691Z,12.97
2023-01-23T02:42:11.049Z,13.33
2023-01-23T02:44:39.263Z,13.20
2023-01-23T02:47:11.860Z,13.87
2023-01-23T02:49:40.574Z,13.23
2023-01-23T02:52:09.754Z,12.70
2023-01-23T02:54:38.090Z,13.37
2023-01-23T02:57:06.294Z,12.90
2023-01-23T02:59:53.884Z,13.27
2023-01-23T03:02:22.456Z,13.20
2023-01-23T03:04:50.984Z,12.10
2023-01-23T03:07:19.269Z,13.23
2023-01-23T03:09:48.764Z,12.80
2023-01-23T03:12:17.028Z,12.93
2023-01-23T03:14:46.727Z,12.87
2023-01-23T03:17:16.094Z,12.47
2023-01-23T03:19:44.494Z,13.30
2023-01-23T03:22:12.726Z,12.87
2023-01-23T03:24:40.891Z,12.53
2023-01-23T03:27:09.616Z,12.80
2023-01-23T03:29:55.341Z,13.43
2023-01-23T03:32:26.107Z,12.63
2023-01-23T03:34:54.283Z,13.83
2023-01-23T03:37:22.538Z,14.17
2023-01-23T03:40:08.189Z,14.53
2023-01-23T03:42:37.110Z,12.97
2023-01-23T03:45:06.602Z,13.70
2023-01-23T03:47:36.455Z,12.97
2023-01-23T03:50:04.852Z,13.83
2023-01-23T03:52:33.052Z,13.57
2023-01-23T03:55:01.279Z,12.03
2023-01-23T03:57:29.554Z,12.97
2023-01-23T03:59:57.804Z,12.87
2023-01-23T04:02:25.968Z,13.20
2023-01-23T04:04:55.562Z,13.30
2023-01-23T04:07:23.734Z,12.57
2023-01-23T04:09:51.959Z,12.70
2023-01-23T04:12:20.531Z,12.73
2023-01-23T04:14:48.736Z,13.43
2023-01-23T04:17:17.067Z,13.73
2023-01-23T04:19:45.219Z,13.33
2023-01-23T04:22:14.805Z,12.70
2023-01-23T04:24:43.031Z,13.20
2023-01-23T04:27:11.334Z,13.40
2023-01-23T04:29:39.523Z,13.60
2023-01-23T04:32:09.627Z,13.13
2023-01-23T04:34:38.246Z,12.97
2023-01-23T04:37:06.910Z,13.03
2023-01-23T04:39:36.556Z,13.10
2023-01-23T04:42:04.861Z,13.73
2023-01-23T04:44:33.155Z,13.70
2023-01-23T04:47:01.466Z,13.37
2023-01-23T04:49:29.695Z,14.20
2023-01-23T04:51:57.912Z,12.93
2023-01-23T04:54:26.114Z,12.70
2023-01-23T04:56:56.931Z,13.67
2023-01-23T04:59:25.199Z,13.13
2023-01-23T05:01:53.449Z,13.63
2023-01-23T05:04:21.630Z,12.83
2023-01-23T05:06:49.901Z,12.97
2023-01-23T05:09:18.175Z,14.30
2023-01-23T05:11:46.386Z,14.03
2023-01-23T05:14:15.962Z,13.10
2023-01-23T05:16:59.414Z,13.70
2023-01-23T05:19:27.747Z,13.60
2023-01-23T05:21:55.990Z,13.87
2023-01-23T05:24:24.227Z,12.63
2023-01-23T05:26:52.462Z,12.40
2023-01-23T05:29:22.127Z,12.83
2023-01-23T05:31:50.365Z,14.23
2023-01-23T05:34:18.557Z,13.83
2023-01-23T05:36:46.732Z,14.43
2023-01-23T05:39:14.939Z,12.53
2023-01-23T05:41:43.104Z,13.53
2023-01-23T05:44:11.272Z,14.03
2023-01-23T05:46:40.819Z,14.13
2023-01-23T05:49:09.051Z,14.33
2023-01-23T05:51:37.258Z,13.53
2023-01-23T05:54:05.637Z,14.03
2023-01-23T05:56:33.795Z,15.20
2023-01-23T05:59:01.947Z,15.33
2023-01-23T06:01:30.123Z,15.53
2023-01-23T06:03:59.799Z,14.90
2023-01-23T06:06:28.102Z,15.97
2023-01-23T06:08:56.361Z,15.30
2023-01-23T06:11:24.558Z,14.70
2023-01-23T06:13:52.875Z,14.87
2023-01-23T06:16:21.129Z,14.40
2023-01-23T06:18:49.365Z,16.23
2023-01-23T06:21:19.008Z,16.47
2023-01-23T06:23:47.276Z,15.80
2023-01-23T06:26:15.696Z,14.83
2023-01-23T06:28:43.933Z,15.47
2023-01-23T06:31:12.179Z,15.40
2023-01-23T06:33:40.434Z,16.30
2023-01-23T06:36:09.530Z,17.60
2023-01-23T06:38:39.145Z,17.93
2023-01-23T06:41:07.312Z,17.00
2023-01-23T06:43:35.685Z,16.93
2023-01-23T06:46:03.861Z,15.30
2023-01-23T06:48:32.094Z,16.57
2023-01-23T06:51:01.758Z,16.83
2023-01-23T06:53:30.471Z,15.10
2023-01-23T06:56:02.914Z,18.23
2023-01-23T06:58:31.138Z,16.47
2023-01-23T07:01:00.101Z,17.10
2023-01-23T07:03:28.329Z,16.23
2023-01-23T07:05:56.500Z,18.30
2023-01-23T07:08:24.699Z,18.50
2023-01-23T07:10:52.868Z,16.57
2023-01-23T07:13:22.380Z,17.20
2023-01-23T07:15:50.567Z,16.87
2023-01-23T07:18:18.809Z,16.47
2023-01-23T07:20:47.061Z,16.60
2023-01-23T07:23:15.230Z,17.00
2023-01-23T07:25:44.503Z,17.47
2023-01-23T07:28:12.768Z,17.00
2023-01-23T07:30:42.378Z,17.57
2023-01-23T07:33:10.845Z,16.93
2023-01-23T07:35:40.284Z,18.30
2023-01-23T07:38:08.473Z,16.47
2023-01-23T07:40:54.859Z,16.43
2023-01-23T07:43:23.487Z,18.43
2023-01-23T07:45:53.091Z,17.60
2023-01-23T07:48:21.367Z,17.97
2023-01-23T07:50:49.651Z,17.57
2023-01-23T07:53:18.041Z,19.00
2023-01-23T07:55:46.446Z,19.57
2023-01-23T07:58:14.666Z,22.47
2023-01-23T08:00:43.302Z,21.47
2023-01-23T08:03:13.105Z,19.30
2023-01-23T08:05:43.661Z,18.50
2023-01-23T08:08:13.913Z,18.27
2023-01-23T08:10:42.413Z,18.77
2023-01-23T08:13:10.601Z,17.50
2023-01-23T08:15:39.965Z,18.50
2023-01-23T08:18:08.233Z,17.63
2023-01-23T08:20:37.984Z,18.23
2023-01-23T08:23:06.336Z,18.33
2023-01-23T08:25:35.084Z,17.77
2023-01-23T08:28:03.340Z,18.00
2023-01-23T08:30:31.547Z,17.00
2023-01-23T08:33:00.564Z,18.63
2023-01-23T08:35:28.731Z,19.53
2023-01-23T08:37:58.287Z,18.63
2023-01-23T08:40:26.602Z,17.33
2023-01-23T08:42:57.346Z,17.47
2023-01-23T08:45:25.824Z,17.30
2023-01-23T08:47:54.165Z,17.50
2023-01-23T08:50:22.624Z,15.93
2023-01-23T08:52:51.139Z,17.10
2023-01-23T08:55:20.757Z,16.70
2023-01-23T08:57:48.989Z,16.70
2023-01-23T09:00:18.184Z,17.07
2023-01-23T09:02:46.647Z,17.23
2023-01-23T09:05:14.819Z,15.47
2023-01-23T09:07:43.042Z,15.93
2023-01-23T09:10:13.838Z,16.60
2023-01-23T09:12:43.584Z,15.97
2023-01-23T09:15:12.324Z,18.43
2023-01-23T09:17:40.642Z,16.37
2023-01-23T09:20:10.473Z,16.53
2023-01-23T09:22:38.735Z,15.60
2023-01-23T09:25:07.932Z,16.20
2023-01-23T09:27:36.131Z,15.90
2023-01-23T09:30:06.780Z,16.20
2023-01-23T09:32:34.964Z,17.10
2023-01-23T09:35:04.583Z,15.53
2023-01-23T09:37:58.456Z,15.73
2023-01-23T09:40:28.381Z,14.53
2023-01-23T09:42:59.854Z,15.13
2023-01-23T09:45:30.816Z,16.37
2023-01-23T09:48:10.823Z,16.17
2023-01-23T09:50:54.879Z,15.67
2023-01-23T09:53:26.337Z,14.43
2023-01-23T09:56:00.108Z,16.23
2023-01-23T09:58:32.966Z,15.87
2023-01-23T10:01:02.647Z,16.17
2023-01-23T10:03:33.123Z,16.20
2023-01-23T10:06:19.650Z,15.57
2023-01-23T10:08:59.112Z,15.67
2023-01-23T10:11:35.383Z,15.10
2023-01-23T10:14:17.465Z,16.47
2023-01-23T10:17:04.074Z,15.30
2023-01-23T10:19:50.471Z,15.07
2023-01-23T10:22:36.244Z,15.00
2023-01-23T10:25:14.243Z,18.03
2023-01-23T10:27:46.292Z,16.33
2023-01-23T10:30:23.674Z,15.10
2023-01-23T10:32:58.824Z,15.47
2023-01-23T10:35:33.425Z,15.33
2023-01-23T10:38:06.243Z,14.67
2023-01-23T10:40:51.548Z,14.37
2023-01-23T10:43:22.070Z,14.20
2023-01-23T10:45:51.335Z,14.80
2023-01-23T10:48:44.351Z,15.03
2023-01-23T10:51:36.002Z,14.33
2023-01-23T10:54:06.602Z,14.97
2023-01-23T10:56:37.307Z,15.27
2023-01-23T10:59:08.470Z,14.47
2023-01-23T11:01:42.386Z,15.87
2023-01-23T11:04:22.102Z,13.93
2023-01-23T11:07:03.080Z,13.77
2023-01-23T11:09:32.219Z,15.77
2023-01-23T11:12:06.287Z,14.00
2023-01-23T11:14:38.471Z,15.10
2023-01-23T11:17:17.800Z,15.23
2023-01-23T11:19:50.057Z,14.83
2023-01-23T11:22:33.875Z,14.37
2023-01-23T11:25:24.648Z,16.15
2023-01-23T11:27:59.494Z,14.03
2023-01-23T11:30:36.912Z,14.90
2023-01-23T11:33:14.427Z,15.10
2023-01-23T11:36:01.587Z,15.13
2023-01-23T11:38:35.904Z,14.50
2023-01-23T11:41:06.323Z,14.67
2023-01-23T11:43:34.682Z,13.83
2023-01-23T11:46:24.970Z,12.70
2023-01-23T11:49:18.831Z,13.90
2023-01-23T11:51:57.766Z,14.87
2023-01-23T11:54:48.317Z,12.97
2023-01-23T11:57:24.528Z,13.67
2023-01-23T12:00:07.409Z,15.10
2023-01-23T12:03:02.810Z,13.50
2023-01-23T12:05:48.382Z,13.57
2023-01-23T12:08:27.737Z,14.20
2023-01-23T12:11:12.110Z,15.80
2023-01-23T12:14:05.336Z,20.23
2023-01-23T12:16:50.606Z,19.97
2023-01-23T12:19:28.180Z,16.63
2023-01-23T12:22:06.117Z,16.07
2023-01-23T12:24:52.493Z,15.77
2023-01-23T12:27:28.001Z,14.23
2023-01-23T12:30:15.547Z,15.73
2023-01-23T12:33:02.728Z,14.70
2023-01-23T12:35:43.319Z,15.37
2023-01-23T12:38:19.025Z,14.20
2023-01-23T12:40:53.572Z,14.83
2023-01-23T12:43:34.787Z,14.73
2023-01-23T12:46:09.680Z,15.37
2023-01-23T12:48:44.406Z,14.87
2023-01-23T12:51:20.048Z,15.57
2023-01-23T12:53:51.856Z,17.47
2023-01-23T12:56:26.844Z,21.37
2023-01-23T12:59:05.620Z,19.23
2023-01-23T13:01:56.605Z,18.60
2023-01-23T13:04:41.455Z,16.30
2023-01-23T13:07:23.567Z,15.43
2023-01-23T13:10:08.367Z,16.07
2023-01-23T13:12:38.000Z,18.50
2023-01-23T13:15:40.316Z,20.10
2023-01-23T13:18:23.766Z,16.73
2023-01-23T13:21:15.996Z,16.10
2023-01-23T13:23:44.271Z,18.40
2023-01-23T13:26:36.357Z,18.63
2023-01-23T13:29:07.618Z,17.43
2023-01-23T13:31:42.577Z,17.77
2023-01-23T13:34:37.062Z,18.93
2023-01-23T13:37:34.471Z,20.70
2023-01-23T13:40:13.886Z,18.67
2023-01-23T13:42:42.109Z,19.17
2023-01-23T13:45:32.150Z,19.73
2023-01-23T14:23:02.464Z,19.63
2023-01-23T14:25:31.559Z,18.40
2023-01-23T14:28:08.435Z,18.53
2023-01-23T14:30:36.648Z,18.77
2023-01-23T14:33:12.516Z,21.77
2023-01-23T14:35:44.602Z,20.93
2023-01-23T14:38:21.627Z,20.97
2023-01-23T14:40:51.314Z,22.10
2023-01-23T14:43:22.220Z,26.67
2023-01-23T14:45:56.504Z,23.67
2023-01-23T14:48:24.883Z,20.33
2023-01-23T14:51:09.553Z,22.00
2023-01-23T14:53:41.616Z,23.53
2023-01-23T14:56:12.805Z,22.90
2023-01-23T14:58:41.354Z,24.97
2023-01-23T15:01:11.794Z,22.77
2023-01-23T15:03:44.358Z,21.00
2023-01-23T15:06:16.731Z,20.43
2023-01-23T15:08:45.226Z,21.03
2023-01-23T15:11:18.332Z,21.47
2023-01-23T15:13:50.466Z,24.23
2023-01-23T15:16:23.412Z,20.00
2023-01-23T15:18:59.850Z,19.93
2023-01-23T15:21:35.628Z,23.30
2023-01-23T15:24:24.033Z,20.27
2023-01-23T15:27:01.320Z,21.17
2023-01-23T15:29:29.496Z,22.43
2023-01-23T15:31:59.249Z,22.40
2023-01-23T15:34:31.519Z,19.00
2023-01-23T15:37:06.676Z,19.70
2023-01-23T15:39:39.290Z,23.07
2023-01-23T15:42:27.775Z,22.87
2023-01-23T15:45:00.981Z,22.93
2023-01-23T15:47:30.589Z,23.23
2023-01-23T15:50:01.666Z,23.73
2023-01-23T15:52:45.891Z,23.30
2023-01-23T15:55:15.150Z,21.93
2023-01-23T15:57:43.764Z,22.50
2023-01-23T16:00:16.233Z,26.73
2023-01-23T16:02:55.751Z,26.10
2023-01-23T16:05:27.285Z,25.60
2023-01-23T16:07:57.315Z,24.40
2023-01-23T16:10:29.261Z,25.23
2023-01-23T16:12:59.096Z,23.53
2023-01-23T16:15:28.669Z,24.80
2023-01-23T16:17:58.970Z,21.93
2023-01-23T16:20:29.786Z,23.23
2023-01-23T16:23:11.665Z,22.63
2023-01-23T16:25:45.155Z,23.03
2023-01-23T16:28:15.238Z,20.70
2023-01-23T16:30:43.537Z,21.10
2023-01-23T16:33:11.806Z,22.50
2023-01-23T16:35:40.703Z,22.67
2023-01-23T16:38:19.258Z,21.50
2023-01-23T16:40:47.719Z,22.20
2023-01-23T16:43:15.888Z,20.67
2023-01-23T16:45:44.083Z,26.30
2023-01-23T16:48:21.787Z,27.27
2023-01-23T16:50:59.562Z,30.73
2023-01-23T16:53:31.521Z,27.37
2023-01-23T16:56:01.517Z,23.23
2023-01-23T16:58:32.687Z,22.83
2023-01-23T17:01:04.266Z,21.87
2023-01-23T17:03:35.618Z,23.67
2023-01-23T17:06:03.953Z,24.53
2023-01-23T17:08:33.594Z,25.00
2023-01-23T17:11:04.143Z,23.40
2023-01-23T17:13:35.156Z,24.33
2023-01-23T17:16:15.444Z,22.53
2023-01-23T17:18:50.458Z,24.63
2023-01-23T17:21:20.463Z,23.97
2023-01-23T17:23:50.321Z,25.47
2023-01-23T17:26:19.371Z,25.20
2023-01-23T17:28:47.846Z,23.17
2023-01-23T17:31:20.563Z,22.97
2023-01-23T17:33:49.093Z,24.00
2023-01-23T17:36:17.328Z,24.10
2023-01-23T17:38:45.557Z,24.40
2023-01-23T17:41:18.815Z,22.37
2023-01-23T17:43:48.382Z,22.90
2023-01-23T17:46:23.846Z,24.13
2023-01-23T17:48:52.092Z,24.07
2023-01-23T17:51:22.233Z,24.53
2023-01-23T17:53:51.427Z,23.90
2023-01-23T17:56:21.073Z,23.10
2023-01-23T17:58:49.278Z,24.67
2023-01-23T18:01:23.349Z,24.43
2023-01-23T18:03:52.684Z,23.10
2023-01-23T18:06:21.437Z,22.40
2023-01-23T18:08:49.659Z,22.80
2023-01-23T18:11:21.783Z,23.10
2023-01-23T18:14:06.534Z,20.27
2023-01-23T18:16:41.359Z,22.13
2023-01-23T18:19:17.545Z,20.97
2023-01-23T18:21:47.412Z,21.67
2023-01-23T18:24:27.546Z,23.77
2023-01-23T18:27:10.976Z,22.90
2023-01-23T18:29:51.036Z,22.67
2023-01-23T18:32:54.705Z,22.53
2023-01-23T18:35:34.116Z,22.53
2023-01-23T18:38:11.703Z,22.10
2023-01-23T18:40:48.220Z,20.20
2023-01-23T18:43:34.597Z,22.67
2023-01-23T18:46:03.118Z,20.93
2023-01-23T18:48:31.892Z,21.90
2023-01-23T18:51:08.369Z,21.47
2023-01-23T18:53:47.962Z,20.97
2023-01-23T18:56:27.400Z,22.10
2023-01-23T18:59:11.534Z,23.60
2023-01-23T19:01:50.170Z,22.13
2023-01-23T19:04:19.727Z,23.40
2023-01-23T19:06:48.309Z,24.43
2023-01-23T19:09:20.106Z,30.00
2023-01-23T19:12:01.189Z,27.53
2023-01-23T19:14:47.885Z,26.13
2023-01-23T19:17:25.920Z,25.73
2023-01-23T19:20:01.789Z,25.47
2023-01-23T19:22:47.404Z,26.57
2023-01-23T19:25:19.928Z,24.77
2023-01-23T19:27:55.991Z,26.73
2023-01-23T19:30:26.771Z,30.20
2023-01-23T19:32:55.145Z,23.13
2023-01-23T19:35:23.645Z,24.77
2023-01-23T19:37:52.016Z,23.87
2023-01-23T19:40:20.384Z,25.80
2023-01-23T19:42:56.260Z,26.77
2023-01-23T19:45:35.215Z,24.67
2023-01-23T19:48:03.414Z,22.77
2023-01-23T19:50:31.604Z,25.70
2023-01-23T19:53:00.281Z,24.37
2023-01-23T19:55:30.332Z,24.13
2023-01-23T19:57:58.898Z,30.50
2023-01-23T20:00:29.664Z,30.57
2023-01-23T20:02:59.431Z,29.77
2023-01-23T20:05:27.989Z,27.27
2023-01-23T20:07:56.183Z,25.33
2023-01-23T20:10:24.547Z,26.43
2023-01-23T20:12:55.279Z,26.07
2023-01-23T20:15:24.678Z,25.67
2023-01-23T20:17:53.376Z,27.70
2023-01-23T20:20:24.049Z,27.17
2023-01-23T20:22:52.387Z,26.37
2023-01-23T20:25:21.276Z,25.37
2023-01-23T20:27:49.671Z,27.07
2023-01-23T20:30:20.722Z,27.23
2023-01-23T20:32:52.193Z,28.33
2023-01-23T20:35:20.387Z,25.73
2023-01-23T20:37:49.951Z,27.07
2023-01-23T20:40:18.552Z,27.97
2023-01-23T20:42:47.824Z,28.17
2023-01-23T20:45:16.132Z,27.77
2023-01-23T20:47:44.343Z,29.53
2023-01-23T20:50:13.095Z,31.80
2023-01-23T20:52:58.779Z,26.73
2023-01-23T20:55:28.410Z,26.00
2023-01-23T20:58:14.139Z,25.80
2023-01-23T21:00:44.316Z,26.40
2023-01-23T21:03:12.479Z,25.90
2023-01-23T21:05:40.927Z,27.70
2023-01-23T21:08:09.629Z,28.63
2023-01-23T21:10:39.213Z,27.23
2023-01-23T21:13:11.642Z,27.53
2023-01-23T21:15:39.780Z,26.97
2023-01-23T21:18:07.965Z,27.10
2023-01-23T21:20:36.997Z,26.83
2023-01-23T21:23:06.252Z,27.43
2023-01-23T21:25:38.239Z,30.13
2023-01-23T21:28:06.514Z,28.50
2023-01-23T21:30:34.788Z,27.70
2023-01-23T21:33:02.969Z,28.33
2023-01-23T21:35:31.190Z,26.20
2023-01-23T21:37:59.423Z,25.90
2023-01-23T21:40:27.686Z,27.17
2023-01-23T21:42:57.275Z,26.00
2023-01-23T21:45:25.962Z,26.40
2023-01-23T21:47:54.078Z,26.13
2023-01-23T21:50:22.215Z,26.77
2023-01-23T21:52:50.383Z,27.27
2023-01-23T21:55:18.820Z,28.97
2023-01-23T21:57:47.185Z,26.83
2023-01-23T22:00:46.349Z,25.90
2023-01-23T22:03:14.523Z,26.50
2023-01-23T22:05:42.690Z,27.63
2023-01-23T22:08:10.892Z,27.10
2023-01-23T22:10:39.759Z,26.40
2023-01-23T22:13:07.967Z,25.97
2023-01-23T22:15:37.620Z,27.03
2023-01-23T22:18:05.941Z,25.67
2023-01-23T22:20:34.248Z,26.90
2023-01-23T22:23:02.438Z,26.27
2023-01-23T22:25:30.607Z,25.30
2023-01-23T22:27:58.836Z,25.77
2023-01-23T22:30:27.025Z,25.60
2023-01-23T22:32:57.120Z,26.03
2023-01-23T22:35:25.277Z,24.77
2023-01-23T22:37:53.424Z,25.10
2023-01-23T22:40:21.702Z,27.27
2023-01-23T22:42:49.858Z,27.53
2023-01-23T22:45:18.350Z,25.37
2023-01-23T22:47:46.744Z,26.30
2023-01-23T22:50:17.099Z,27.30
2023-01-23T22:52:45.656Z,25.73
2023-01-23T22:55:14.392Z,26.07
2023-01-23T22:57:42.896Z,25.70
2023-01-23T23:00:14.128Z,26.20
2023-01-23T23:02:42.704Z,25.77
2023-01-23T23:05:11.559Z,26.77
2023-01-23T23:07:41.241Z,25.80
2023-01-23T23:10:12.706Z,25.60
2023-01-23T23:12:41.000Z,26.83
2023-01-23T23:15:10.419Z,27.57
2023-01-23T23:17:38.656Z,24.50
2023-01-23T23:20:08.260Z,25.90
2023-01-23T23:22:36.405Z,24.47
2023-01-23T23:25:06.592Z,26.37
2023-01-23T23:27:34.725Z,27.10
2023-01-23T23:30:02.886Z,27.80
2023-01-23T23:32:31.078Z,27.60
2023-01-23T23:34:59.394Z,28.03
2023-01-23T23:37:27.578Z,26.73
2023-01-23T23:39:55.718Z,27.27
2023-01-23T23:42:25.307Z,24.90
2023-01-23T23:44:53.452Z,25.07
2023-01-23T23:47:21.659Z,25.07
2023-01-23T23:49:49.803Z,26.47
2023-01-23T23:52:18.080Z,26.03
2023-01-23T23:54:46.216Z,25.27
2023-01-23T23:57:14.396Z,27.10
2023-01-23T23:59:44.013Z,26.37
